sensor_id;sensor_type;location;lat;lon;timestamp;temperature;humidity
12049;DHT22;6085;49.452;8.502;2023-04-24T00:00:23;11.10;99.90
12049;DHT22;6085;49.452;8.502;2023-04-24T00:04:27;11.10;99.90
12049;DHT22;6085;49.452;8.502;2023-04-24T00:08:29;11.20;99.90
12049;DHT22;6085;49.452;8.502;2023-04-24T00:12:30;11.20;99.90
12049;DHT22;6085;49.452;8.502;2023-04-24T00:16:32;11.20;99.90
12049;DHT22;6085;49.452;8.502;2023-04-24T00:20:36;11.20;99.90
12049;DHT22;6085;49.452;8.502;2023-04-24T00:24:38;11.10;99.90
12049;DHT22;6085;49.452;8.502;2023-04-24T00:28:40;11.20;99.90
12049;DHT22;6085;49.452;8.502;2023-04-24T00:32:42;11.30;99.90
12049;DHT22;6085;49.452;8.502;2023-04-24T00:36:45;11.40;99.90
12049;DHT22;6085;49.452;8.502;2023-04-24T00:40:49;11.50;99.90
12049;DHT22;6085;49.452;8.502;2023-04-24T00:44:51;11.50;99.90
12049;DHT22;6085;49.452;8.502;2023-04-24T00:48:53;11.40;99.90
12049;DHT22;6085;49.452;8.502;2023-04-24T00:52:57;11.30;99.90
12049;DHT22;6085;49.452;8.502;2023-04-24T00:56:59;11.30;99.90
12049;DHT22;6085;49.452;8.502;2023-04-24T01:01:02;11.30;99.90
12049;DHT22;6085;49.452;8.502;2023-04-24T01:05:08;11.30;99.90
12049;DHT22;6085;49.452;8.502;2023-04-24T01:09:12;11.30;99.90
12049;DHT22;6085;49.452;8.502;2023-04-24T01:13:15;11.30;99.90
12049;DHT22;6085;49.452;8.502;2023-04-24T01:17:16;11.30;99.90
12049;DHT22;6085;49.452;8.502;2023-04-24T01:21:21;11.30;99.90
12049;DHT22;6085;49.452;8.502;2023-04-24T01:25:25;11.30;99.90
12049;DHT22;6085;49.452;8.502;2023-04-24T01:29:27;11.20;99.90
12049;DHT22;6085;49.452;8.502;2023-04-24T01:33:29;11.10;99.90
12049;DHT22;6085;49.452;8.502;2023-04-24T01:37:31;11.00;99.90
12049;DHT22;6085;49.452;8.502;2023-04-24T01:41:35;11.00;99.90
12049;DHT22;6085;49.452;8.502;2023-04-24T01:45:37;11.00;99.90
12049;DHT22;6085;49.452;8.502;2023-04-24T01:49:39;11.10;99.90
12049;DHT22;6085;49.452;8.502;2023-04-24T01:53:41;11.00;99.90
12049;DHT22;6085;49.452;8.502;2023-04-24T01:57:44;11.00;99.90
12049;DHT22;6085;49.452;8.502;2023-04-24T02:01:46;11.10;99.90
12049;DHT22;6085;49.452;8.502;2023-04-24T02:05:48;11.10;99.90
12049;DHT22;6085;49.452;8.502;2023-04-24T02:09:50;11.10;99.90
12049;DHT22;6085;49.452;8.502;2023-04-24T02:13:54;11.10;99.90
12049;DHT22;6085;49.452;8.502;2023-04-24T02:17:56;11.10;99.90
12049;DHT22;6085;49.452;8.502;2023-04-24T02:21:57;11.20;99.90
12049;DHT22;6085;49.452;8.502;2023-04-24T02:25:59;11.20;99.90
12049;DHT22;6085;49.452;8.502;2023-04-24T02:30:03;11.20;99.90
12049;DHT22;6085;49.452;8.502;2023-04-24T02:34:05;11.20;99.90
12049;DHT22;6085;49.452;8.502;2023-04-24T02:38:09;11.30;99.90
12049;DHT22;6085;49.452;8.502;2023-04-24T02:42:11;11.30;99.90
12049;DHT22;6085;49.452;8.502;2023-04-24T02:46:14;11.20;99.90
12049;DHT22;6085;49.452;8.502;2023-04-24T02:50:16;11.10;99.90
12049;DHT22;6085;49.452;8.502;2023-04-24T02:54:18;11.10;99.90
12049;DHT22;6085;49.452;8.502;2023-04-24T02:58:20;11.00;99.90
12049;DHT22;6085;49.452;8.502;2023-04-24T03:02:23;10.70;99.90
12049;DHT22;6085;49.452;8.502;2023-04-24T03:06:25;10.40;99.90
12049;DHT22;6085;49.452;8.502;2023-04-24T03:10:27;10.10;99.90
12049;DHT22;6085;49.452;8.502;2023-04-24T03:14:29;10.00;99.90
12049;DHT22;6085;49.452;8.502;2023-04-24T03:18:33;9.80;99.90
12049;DHT22;6085;49.452;8.502;2023-04-24T03:22:35;9.70;99.90
12049;DHT22;6085;49.452;8.502;2023-04-24T03:26:36;9.60;99.90
12049;DHT22;6085;49.452;8.502;2023-04-24T03:30:38;9.50;99.90
12049;DHT22;6085;49.452;8.502;2023-04-24T03:34:41;9.40;99.90
12049;DHT22;6085;49.452;8.502;2023-04-24T03:38:43;9.40;99.90
12049;DHT22;6085;49.452;8.502;2023-04-24T03:42:45;9.30;99.90
12049;DHT22;6085;49.452;8.502;2023-04-24T03:46:47;9.30;99.90
12049;DHT22;6085;49.452;8.502;2023-04-24T03:50:50;9.20;99.90
12049;DHT22;6085;49.452;8.502;2023-04-24T03:54:52;9.20;99.90
12049;DHT22;6085;49.452;8.502;2023-04-24T03:58:56;9.10;99.90
12049;DHT22;6085;49.452;8.502;2023-04-24T04:02:58;9.00;99.90
12049;DHT22;6085;49.452;8.502;2023-04-24T04:07:01;8.80;99.90
12049;DHT22;6085;49.452;8.502;2023-04-24T04:11:03;8.70;99.90
12049;DHT22;6085;49.452;8.502;2023-04-24T04:15:06;8.60;99.90
12049;DHT22;6085;49.452;8.502;2023-04-24T04:19:08;8.60;99.90
12049;DHT22;6085;49.452;8.502;2023-04-24T04:23:11;8.60;99.90
12049;DHT22;6085;49.452;8.502;2023-04-24T04:27:13;8.50;99.90
12049;DHT22;6085;49.452;8.502;2023-04-24T04:31:17;8.50;99.90
12049;DHT22;6085;49.452;8.502;2023-04-24T04:35:19;8.40;99.90
12049;DHT22;6085;49.452;8.502;2023-04-24T04:39:22;8.50;99.90
12049;DHT22;6085;49.452;8.502;2023-04-24T04:43:24;8.60;99.90
12049;DHT22;6085;49.452;8.502;2023-04-24T04:47:26;8.80;99.90
12049;DHT22;6085;49.452;8.502;2023-04-24T04:51:29;8.90;99.90
12049;DHT22;6085;49.452;8.502;2023-04-24T04:55:33;9.10;99.90
12049;DHT22;6085;49.452;8.502;2023-04-24T04:59:35;9.10;99.90
12049;DHT22;6085;49.452;8.502;2023-04-24T05:03:37;9.30;99.90
12049;DHT22;6085;49.452;8.502;2023-04-24T05:07:39;9.70;99.90
12049;DHT22;6085;49.452;8.502;2023-04-24T05:11:43;10.30;99.90
12049;DHT22;6085;49.452;8.502;2023-04-24T05:15:45;10.50;99.90
12049;DHT22;6085;49.452;8.502;2023-04-24T05:19:47;10.20;99.90
12049;DHT22;6085;49.452;8.502;2023-04-24T05:23:49;10.30;99.90
12049;DHT22;6085;49.452;8.502;2023-04-24T05:27:53;10.90;99.90
12049;DHT22;6085;49.452;8.502;2023-04-24T05:31:55;11.50;99.90
12049;DHT22;6085;49.452;8.502;2023-04-24T05:35:57;11.70;99.90
12049;DHT22;6085;49.452;8.502;2023-04-24T05:39:58;11.40;99.90
12049;DHT22;6085;49.452;8.502;2023-04-24T05:44:02;11.00;99.90
12049;DHT22;6085;49.452;8.502;2023-04-24T05:48:04;10.90;99.90
12049;DHT22;6085;49.452;8.502;2023-04-24T05:52:06;11.30;99.90
12049;DHT22;6085;49.452;8.502;2023-04-24T05:56:09;11.90;99.90
12049;DHT22;6085;49.452;8.502;2023-04-24T06:00:14;12.50;99.90
12049;DHT22;6085;49.452;8.502;2023-04-24T06:04:16;12.60;99.90
12049;DHT22;6085;49.452;8.502;2023-04-24T06:08:18;12.10;99.90
12049;DHT22;6085;49.452;8.502;2023-04-24T06:12:20;11.60;99.90
12049;DHT22;6085;49.452;8.502;2023-04-24T06:16:24;11.30;99.90
12049;DHT22;6085;49.452;8.502;2023-04-24T06:20:29;11.30;99.90
12049;DHT22;6085;49.452;8.502;2023-04-24T06:24:31;11.50;99.90
12049;DHT22;6085;49.452;8.502;2023-04-24T06:28:33;11.40;99.90
12049;DHT22;6085;49.452;8.502;2023-04-24T06:32:36;11.30;99.90
12049;DHT22;6085;49.452;8.502;2023-04-24T06:36:38;10.90;99.90
12049;DHT22;6085;49.452;8.502;2023-04-24T06:40:40;10.60;99.90
12049;DHT22;6085;49.452;8.502;2023-04-24T06:44:42;10.20;99.90
12049;DHT22;6085;49.452;8.502;2023-04-24T06:48:46;10.00;99.90
12049;DHT22;6085;49.452;8.502;2023-04-24T06:52:49;9.80;99.90
12049;DHT22;6085;49.452;8.502;2023-04-24T06:56:51;9.60;99.90
12049;DHT22;6085;49.452;8.502;2023-04-24T07:00:53;9.60;99.90
12049;DHT22;6085;49.452;8.502;2023-04-24T07:04:56;9.70;99.90
12049;DHT22;6085;49.452;8.502;2023-04-24T07:08:59;9.90;99.90
12049;DHT22;6085;49.452;8.502;2023-04-24T07:13:02;10.20;99.90
12049;DHT22;6085;49.452;8.502;2023-04-24T07:17:04;10.70;99.90
12049;DHT22;6085;49.452;8.502;2023-04-24T07:21:08;11.30;99.90
12049;DHT22;6085;49.452;8.502;2023-04-24T07:25:10;13.00;99.90
12049;DHT22;6085;49.452;8.502;2023-04-24T07:29:12;13.40;99.90
12049;DHT22;6085;49.452;8.502;2023-04-24T07:33:14;13.80;99.90
12049;DHT22;6085;49.452;8.502;2023-04-24T07:37:18;13.10;99.90
12049;DHT22;6085;49.452;8.502;2023-04-24T07:41:20;12.10;99.90
12049;DHT22;6085;49.452;8.502;2023-04-24T07:45:23;11.60;99.90
12049;DHT22;6085;49.452;8.502;2023-04-24T07:49:26;11.60;99.90
12049;DHT22;6085;49.452;8.502;2023-04-24T07:53:30;14.80;99.90
12049;DHT22;6085;49.452;8.502;2023-04-24T07:57:32;17.00;99.90
12049;DHT22;6085;49.452;8.502;2023-04-24T08:01:34;18.30;99.90
12049;DHT22;6085;49.452;8.502;2023-04-24T08:05:36;19.20;99.90
12049;DHT22;6085;49.452;8.502;2023-04-24T08:09:39;20.70;99.90
12049;DHT22;6085;49.452;8.502;2023-04-24T08:13:43;18.10;99.90
12049;DHT22;6085;49.452;8.502;2023-04-24T08:17:45;18.20;99.90
12049;DHT22;6085;49.452;8.502;2023-04-24T08:21:47;19.10;99.90
12049;DHT22;6085;49.452;8.502;2023-04-24T08:25:50;17.60;99.90
12049;DHT22;6085;49.452;8.502;2023-04-24T08:29:53;16.30;99.90
12049;DHT22;6085;49.452;8.502;2023-04-24T08:33:55;15.10;99.90
12049;DHT22;6085;49.452;8.502;2023-04-24T08:37:57;14.20;99.90
12049;DHT22;6085;49.452;8.502;2023-04-24T08:42:00;14.50;99.90
12049;DHT22;6085;49.452;8.502;2023-04-24T08:46:08;16.10;99.90
12049;DHT22;6085;49.452;8.502;2023-04-24T08:50:11;15.30;99.90
12049;DHT22;6085;49.452;8.502;2023-04-24T08:54:13;14.30;99.90
12049;DHT22;6085;49.452;8.502;2023-04-24T08:58:17;13.80;99.90
12049;DHT22;6085;49.452;8.502;2023-04-24T09:02:21;13.30;99.90
12049;DHT22;6085;49.452;8.502;2023-04-24T09:06:23;12.90;99.90
12049;DHT22;6085;49.452;8.502;2023-04-24T09:10:26;13.00;99.90
12049;DHT22;6085;49.452;8.502;2023-04-24T09:14:33;12.90;99.90
12049;DHT22;6085;49.452;8.502;2023-04-24T09:18:36;12.60;99.90
12049;DHT22;6085;49.452;8.502;2023-04-24T09:22:38;12.30;99.90
12049;DHT22;6085;49.452;8.502;2023-04-24T09:26:40;12.00;99.90
12049;DHT22;6085;49.452;8.502;2023-04-24T09:30:44;11.80;99.90
12049;DHT22;6085;49.452;8.502;2023-04-24T09:34:47;12.00;99.90
12049;DHT22;6085;49.452;8.502;2023-04-24T09:38:49;12.50;99.90
12049;DHT22;6085;49.452;8.502;2023-04-24T09:42:56;13.50;99.90
12049;DHT22;6085;49.452;8.502;2023-04-24T09:47:02;13.90;99.90
12049;DHT22;6085;49.452;8.502;2023-04-24T09:51:10;13.50;99.90
12049;DHT22;6085;49.452;8.502;2023-04-24T09:55:18;13.30;99.90
12049;DHT22;6085;49.452;8.502;2023-04-24T09:59:20;13.40;99.90
12049;DHT22;6085;49.452;8.502;2023-04-24T10:03:25;14.20;99.90
12049;DHT22;6085;49.452;8.502;2023-04-24T10:07:32;15.20;99.90
12049;DHT22;6085;49.452;8.502;2023-04-24T10:11:34;14.90;99.90
12049;DHT22;6085;49.452;8.502;2023-04-24T10:15:37;14.20;99.90
12049;DHT22;6085;49.452;8.502;2023-04-24T10:19:41;13.50;99.90
12049;DHT22;6085;49.452;8.502;2023-04-24T10:23:44;13.10;99.90
12049;DHT22;6085;49.452;8.502;2023-04-24T10:27:48;12.80;99.90
12049;DHT22;6085;49.452;8.502;2023-04-24T10:31:50;12.80;99.90
12049;DHT22;6085;49.452;8.502;2023-04-24T10:35:54;14.10;99.90
12049;DHT22;6085;49.452;8.502;2023-04-24T10:39:57;16.70;99.90
12049;DHT22;6085;49.452;8.502;2023-04-24T10:44:04;16.00;99.90
12049;DHT22;6085;49.452;8.502;2023-04-24T10:48:08;14.90;99.90
12049;DHT22;6085;49.452;8.502;2023-04-24T10:52:15;16.00;99.90
12049;DHT22;6085;49.452;8.502;2023-04-24T10:56:17;16.00;99.90
12049;DHT22;6085;49.452;8.502;2023-04-24T11:00:20;16.70;99.90
12049;DHT22;6085;49.452;8.502;2023-04-24T11:04:30;17.70;99.90
12049;DHT22;6085;49.452;8.502;2023-04-24T11:08:37;18.40;99.90
12049;DHT22;6085;49.452;8.502;2023-04-24T11:12:39;17.70;99.90
12049;DHT22;6085;49.452;8.502;2023-04-24T11:16:46;18.70;99.90
12049;DHT22;6085;49.452;8.502;2023-04-24T11:20:54;18.40;99.90
12049;DHT22;6085;49.452;8.502;2023-04-24T11:25:00;17.90;99.90
12049;DHT22;6085;49.452;8.502;2023-04-24T11:29:07;15.80;99.90
12049;DHT22;6085;49.452;8.502;2023-04-24T11:33:09;14.90;99.90
12049;DHT22;6085;49.452;8.502;2023-04-24T11:37:11;15.70;99.90
12049;DHT22;6085;49.452;8.502;2023-04-24T11:41:15;16.40;99.90
12049;DHT22;6085;49.452;8.502;2023-04-24T11:45:20;16.70;99.90
12049;DHT22;6085;49.452;8.502;2023-04-24T11:49:24;16.50;99.90
12049;DHT22;6085;49.452;8.502;2023-04-24T11:53:26;15.80;99.90
12049;DHT22;6085;49.452;8.502;2023-04-24T11:57:30;14.80;99.90
12049;DHT22;6085;49.452;8.502;2023-04-24T12:01:43;14.30;99.90
12049;DHT22;6085;49.452;8.502;2023-04-24T12:05:45;13.50;99.90
12049;DHT22;6085;49.452;8.502;2023-04-24T12:09:49;13.40;99.90
12049;DHT22;6085;49.452;8.502;2023-04-24T12:13:53;13.20;99.90
12049;DHT22;6085;49.452;8.502;2023-04-24T12:17:56;13.20;99.90
12049;DHT22;6085;49.452;8.502;2023-04-24T12:22:01;13.10;99.90
12049;DHT22;6085;49.452;8.502;2023-04-24T12:26:04;13.40;99.90
12049;DHT22;6085;49.452;8.502;2023-04-24T12:30:12;14.50;99.90
12049;DHT22;6085;49.452;8.502;2023-04-24T12:34:18;14.90;99.90
12049;DHT22;6085;49.452;8.502;2023-04-24T12:38:22;14.90;99.90
12049;DHT22;6085;49.452;8.502;2023-04-24T12:42:26;14.90;99.90
12049;DHT22;6085;49.452;8.502;2023-04-24T12:46:30;14.70;99.90
12049;DHT22;6085;49.452;8.502;2023-04-24T12:50:32;14.60;99.90
12049;DHT22;6085;49.452;8.502;2023-04-24T12:54:34;14.90;99.90
12049;DHT22;6085;49.452;8.502;2023-04-24T12:58:36;15.00;99.90
12049;DHT22;6085;49.452;8.502;2023-04-24T13:02:40;15.60;99.90
12049;DHT22;6085;49.452;8.502;2023-04-24T13:06:42;15.80;99.90
12049;DHT22;6085;49.452;8.502;2023-04-24T13:10:43;15.30;99.90
12049;DHT22;6085;49.452;8.502;2023-04-24T13:14:46;15.40;99.90
12049;DHT22;6085;49.452;8.502;2023-04-24T13:18:49;15.50;99.90
12049;DHT22;6085;49.452;8.502;2023-04-24T13:22:51;15.70;99.90
12049;DHT22;6085;49.452;8.502;2023-04-24T13:26:53;15.40;99.90
12049;DHT22;6085;49.452;8.502;2023-04-24T13:30:55;15.70;99.90
12049;DHT22;6085;49.452;8.502;2023-04-24T13:34:58;15.60;99.90
12049;DHT22;6085;49.452;8.502;2023-04-24T13:39:00;15.70;99.90
12049;DHT22;6085;49.452;8.502;2023-04-24T13:43:03;15.90;99.90
12049;DHT22;6085;49.452;8.502;2023-04-24T13:47:06;16.00;99.90
12049;DHT22;6085;49.452;8.502;2023-04-24T13:51:09;15.50;99.90
12049;DHT22;6085;49.452;8.502;2023-04-24T13:55:11;15.10;99.90
12049;DHT22;6085;49.452;8.502;2023-04-24T13:59:13;14.60;99.90
12049;DHT22;6085;49.452;8.502;2023-04-24T14:03:15;14.30;99.90
12049;DHT22;6085;49.452;8.502;2023-04-24T14:07:18;13.90;99.90
12049;DHT22;6085;49.452;8.502;2023-04-24T14:11:20;13.70;99.90
12049;DHT22;6085;49.452;8.502;2023-04-24T14:15:22;13.60;99.90
12049;DHT22;6085;49.452;8.502;2023-04-24T14:19:25;13.50;99.90
12049;DHT22;6085;49.452;8.502;2023-04-24T14:23:28;13.30;99.90
12049;DHT22;6085;49.452;8.502;2023-04-24T14:27:31;13.20;99.90
12049;DHT22;6085;49.452;8.502;2023-04-24T14:31:35;13.10;99.90
12049;DHT22;6085;49.452;8.502;2023-04-24T14:35:37;12.20;99.90
12049;DHT22;6085;49.452;8.502;2023-04-24T14:39:40;11.60;99.90
12049;DHT22;6085;49.452;8.502;2023-04-24T14:43:42;11.60;99.90
12049;DHT22;6085;49.452;8.502;2023-04-24T14:47:44;11.80;99.90
12049;DHT22;6085;49.452;8.502;2023-04-24T14:51:46;12.00;99.90
12049;DHT22;6085;49.452;8.502;2023-04-24T14:55:50;12.10;99.90
12049;DHT22;6085;49.452;8.502;2023-04-24T14:59:51;12.20;99.90
12049;DHT22;6085;49.452;8.502;2023-04-24T15:03:54;12.30;99.90
12049;DHT22;6085;49.452;8.502;2023-04-24T15:07:56;12.40;99.90
12049;DHT22;6085;49.452;8.502;2023-04-24T15:11:59;12.40;99.90
12049;DHT22;6085;49.452;8.502;2023-04-24T15:16:02;12.50;99.90
12049;DHT22;6085;49.452;8.502;2023-04-24T15:20:06;12.50;99.90
12049;DHT22;6085;49.452;8.502;2023-04-24T15:24:09;12.40;99.90
12049;DHT22;6085;49.452;8.502;2023-04-24T15:28:12;12.50;99.90
12049;DHT22;6085;49.452;8.502;2023-04-24T15:32:15;12.60;99.90
12049;DHT22;6085;49.452;8.502;2023-04-24T15:36:17;12.60;99.90
12049;DHT22;6085;49.452;8.502;2023-04-24T15:40:20;12.80;99.90
12049;DHT22;6085;49.452;8.502;2023-04-24T15:44:23;13.30;99.90
12049;DHT22;6085;49.452;8.502;2023-04-24T15:48:26;13.50;99.90
12049;DHT22;6085;49.452;8.502;2023-04-24T15:52:28;13.50;99.90
12049;DHT22;6085;49.452;8.502;2023-04-24T15:56:30;13.40;99.90
12049;DHT22;6085;49.452;8.502;2023-04-24T16:00:33;13.50;99.90
12049;DHT22;6085;49.452;8.502;2023-04-24T16:04:36;13.50;99.90
12049;DHT22;6085;49.452;8.502;2023-04-24T16:08:38;13.50;99.90
12049;DHT22;6085;49.452;8.502;2023-04-24T16:12:40;13.40;99.90
12049;DHT22;6085;49.452;8.502;2023-04-24T16:16:44;13.30;99.90
12049;DHT22;6085;49.452;8.502;2023-04-24T16:20:46;13.20;99.90
12049;DHT22;6085;49.452;8.502;2023-04-24T16:24:48;13.20;99.90
12049;DHT22;6085;49.452;8.502;2023-04-24T16:28:50;13.10;99.90
12049;DHT22;6085;49.452;8.502;2023-04-24T16:32:53;13.00;99.90
12049;DHT22;6085;49.452;8.502;2023-04-24T16:36:55;12.90;99.90
12049;DHT22;6085;49.452;8.502;2023-04-24T16:40:57;12.90;99.90
12049;DHT22;6085;49.452;8.502;2023-04-24T16:44:59;12.80;99.90
12049;DHT22;6085;49.452;8.502;2023-04-24T16:49:02;12.90;99.90
12049;DHT22;6085;49.452;8.502;2023-04-24T16:53:04;12.90;99.90
12049;DHT22;6085;49.452;8.502;2023-04-24T16:57:06;12.80;99.90
12049;DHT22;6085;49.452;8.502;2023-04-24T17:01:08;12.70;99.90
12049;DHT22;6085;49.452;8.502;2023-04-24T17:05:11;12.60;99.90
12049;DHT22;6085;49.452;8.502;2023-04-24T17:09:13;12.60;99.90
12049;DHT22;6085;49.452;8.502;2023-04-24T17:13:16;12.60;99.90
12049;DHT22;6085;49.452;8.502;2023-04-24T17:17:18;12.60;99.90
12049;DHT22;6085;49.452;8.502;2023-04-24T17:21:24;12.60;99.90
12049;DHT22;6085;49.452;8.502;2023-04-24T17:25:26;12.60;99.90
12049;DHT22;6085;49.452;8.502;2023-04-24T17:29:31;12.50;99.90
12049;DHT22;6085;49.452;8.502;2023-04-24T17:33:34;12.40;99.90
12049;DHT22;6085;49.452;8.502;2023-04-24T17:37:37;12.30;99.90
12049;DHT22;6085;49.452;8.502;2023-04-24T17:41:39;12.30;99.90
12049;DHT22;6085;49.452;8.502;2023-04-24T17:45:42;12.30;99.90
12049;DHT22;6085;49.452;8.502;2023-04-24T17:49:44;12.30;99.90
12049;DHT22;6085;49.452;8.502;2023-04-24T17:53:47;12.20;99.90
12049;DHT22;6085;49.452;8.502;2023-04-24T17:57:50;12.10;99.90
12049;DHT22;6085;49.452;8.502;2023-04-24T18:01:52;12.00;99.90
12049;DHT22;6085;49.452;8.502;2023-04-24T18:05:54;11.80;99.90
12049;DHT22;6085;49.452;8.502;2023-04-24T18:09:57;11.70;99.90
12049;DHT22;6085;49.452;8.502;2023-04-24T18:13:59;11.60;99.90
12049;DHT22;6085;49.452;8.502;2023-04-24T18:18:01;11.50;99.90
12049;DHT22;6085;49.452;8.502;2023-04-24T18:22:03;11.40;99.90
12049;DHT22;6085;49.452;8.502;2023-04-24T18:26:06;11.30;99.90
12049;DHT22;6085;49.452;8.502;2023-04-24T18:30:09;11.30;99.90
12049;DHT22;6085;49.452;8.502;2023-04-24T18:34:11;11.30;99.90
12049;DHT22;6085;49.452;8.502;2023-04-24T18:38:13;11.20;99.90
12049;DHT22;6085;49.452;8.502;2023-04-24T18:42:17;11.20;99.90
12049;DHT22;6085;49.452;8.502;2023-04-24T18:46:19;11.20;99.90
12049;DHT22;6085;49.452;8.502;2023-04-24T18:50:21;11.20;99.90
12049;DHT22;6085;49.452;8.502;2023-04-24T18:54:25;11.10;99.90
12049;DHT22;6085;49.452;8.502;2023-04-24T18:58:28;11.10;99.90
12049;DHT22;6085;49.452;8.502;2023-04-24T19:02:31;11.10;99.90
12049;DHT22;6085;49.452;8.502;2023-04-24T19:06:33;11.10;99.90
12049;DHT22;6085;49.452;8.502;2023-04-24T19:10:35;11.10;99.90
12049;DHT22;6085;49.452;8.502;2023-04-24T19:14:39;11.10;99.90
12049;DHT22;6085;49.452;8.502;2023-04-24T19:18:41;11.10;99.90
12049;DHT22;6085;49.452;8.502;2023-04-24T19:22:43;11.10;99.90
12049;DHT22;6085;49.452;8.502;2023-04-24T19:26:45;11.10;99.90
12049;DHT22;6085;49.452;8.502;2023-04-24T19:30:49;11.10;99.90
12049;DHT22;6085;49.452;8.502;2023-04-24T19:34:51;11.10;99.90
12049;DHT22;6085;49.452;8.502;2023-04-24T19:38:52;11.10;99.90
12049;DHT22;6085;49.452;8.502;2023-04-24T19:42:55;11.10;99.90
12049;DHT22;6085;49.452;8.502;2023-04-24T19:46:58;11.00;99.90
12049;DHT22;6085;49.452;8.502;2023-04-24T19:51:01;10.90;99.90
12049;DHT22;6085;49.452;8.502;2023-04-24T19:55:03;10.80;99.90
12049;DHT22;6085;49.452;8.502;2023-04-24T19:59:05;10.70;99.90
12049;DHT22;6085;49.452;8.502;2023-04-24T20:03:09;10.70;99.90
12049;DHT22;6085;49.452;8.502;2023-04-24T20:07:11;10.60;99.90
12049;DHT22;6085;49.452;8.502;2023-04-24T20:11:13;10.60;99.90
12049;DHT22;6085;49.452;8.502;2023-04-24T20:15:15;10.60;99.90
12049;DHT22;6085;49.452;8.502;2023-04-24T20:19:19;10.60;99.90
12049;DHT22;6085;49.452;8.502;2023-04-24T20:23:24;10.50;99.90
12049;DHT22;6085;49.452;8.502;2023-04-24T20:27:26;10.50;99.90
12049;DHT22;6085;49.452;8.502;2023-04-24T20:31:29;10.40;99.90
12049;DHT22;6085;49.452;8.502;2023-04-24T20:35:33;10.30;99.90
12049;DHT22;6085;49.452;8.502;2023-04-24T20:39:35;10.20;99.90
12049;DHT22;6085;49.452;8.502;2023-04-24T20:43:38;10.20;99.90
12049;DHT22;6085;49.452;8.502;2023-04-24T20:47:40;10.10;99.90
12049;DHT22;6085;49.452;8.502;2023-04-24T20:51:44;10.10;99.90
12049;DHT22;6085;49.452;8.502;2023-04-24T20:55:46;10.20;99.90
12049;DHT22;6085;49.452;8.502;2023-04-24T20:59:48;10.10;99.90
12049;DHT22;6085;49.452;8.502;2023-04-24T21:03:50;10.10;99.90
12049;DHT22;6085;49.452;8.502;2023-04-24T21:07:54;10.10;99.90
12049;DHT22;6085;49.452;8.502;2023-04-24T21:11:57;10.10;99.90
12049;DHT22;6085;49.452;8.502;2023-04-24T21:15:59;10.10;99.90
12049;DHT22;6085;49.452;8.502;2023-04-24T21:20:01;10.00;99.90
12049;DHT22;6085;49.452;8.502;2023-04-24T21:24:06;10.00;99.90
12049;DHT22;6085;49.452;8.502;2023-04-24T21:28:08;10.00;99.90
12049;DHT22;6085;49.452;8.502;2023-04-24T21:32:10;9.90;99.90
12049;DHT22;6085;49.452;8.502;2023-04-24T21:36:12;9.90;99.90
12049;DHT22;6085;49.452;8.502;2023-04-24T21:40:15;9.90;99.90
12049;DHT22;6085;49.452;8.502;2023-04-24T21:44:17;9.90;99.90
12049;DHT22;6085;49.452;8.502;2023-04-24T21:48:19;9.80;99.90
12049;DHT22;6085;49.452;8.502;2023-04-24T21:52:21;9.80;99.90
12049;DHT22;6085;49.452;8.502;2023-04-24T21:56:24;9.70;99.90
12049;DHT22;6085;49.452;8.502;2023-04-24T22:00:26;9.70;99.90
12049;DHT22;6085;49.452;8.502;2023-04-24T22:04:28;9.60;99.90
12049;DHT22;6085;49.452;8.502;2023-04-24T22:08:30;9.60;99.90
12049;DHT22;6085;49.452;8.502;2023-04-24T22:12:34;9.60;99.90
12049;DHT22;6085;49.452;8.502;2023-04-24T22:16:36;9.60;99.90
12049;DHT22;6085;49.452;8.502;2023-04-24T22:20:41;9.70;99.90
12049;DHT22;6085;49.452;8.502;2023-04-24T22:24:43;9.70;99.90
12049;DHT22;6085;49.452;8.502;2023-04-24T22:28:46;9.80;99.90
12049;DHT22;6085;49.452;8.502;2023-04-24T22:32:48;9.80;99.90
12049;DHT22;6085;49.452;8.502;2023-04-24T22:36:50;9.70;99.90
12049;DHT22;6085;49.452;8.502;2023-04-24T22:40:52;9.70;99.90
12049;DHT22;6085;49.452;8.502;2023-04-24T22:44:55;9.60;99.90
12049;DHT22;6085;49.452;8.502;2023-04-24T22:48:57;9.60;99.90
12049;DHT22;6085;49.452;8.502;2023-04-24T22:53:00;9.40;99.90
12049;DHT22;6085;49.452;8.502;2023-04-24T22:57:02;9.30;99.90
12049;DHT22;6085;49.452;8.502;2023-04-24T23:01:05;9.20;99.90
12049;DHT22;6085;49.452;8.502;2023-04-24T23:05:08;9.10;99.90
12049;DHT22;6085;49.452;8.502;2023-04-24T23:09:11;9.00;99.90
12049;DHT22;6085;49.452;8.502;2023-04-24T23:13:13;8.90;99.90
12049;DHT22;6085;49.452;8.502;2023-04-24T23:17:16;8.70;99.90
12049;DHT22;6085;49.452;8.502;2023-04-24T23:21:18;8.60;99.90
12049;DHT22;6085;49.452;8.502;2023-04-24T23:25:20;8.40;99.90
12049;DHT22;6085;49.452;8.502;2023-04-24T23:29:22;8.30;99.90
12049;DHT22;6085;49.452;8.502;2023-04-24T23:33:27;8.20;99.90
12049;DHT22;6085;49.452;8.502;2023-04-24T23:37:28;8.20;99.90
12049;DHT22;6085;49.452;8.502;2023-04-24T23:41:31;8.10;99.90
12049;DHT22;6085;49.452;8.502;2023-04-24T23:45:32;8.00;99.90
12049;DHT22;6085;49.452;8.502;2023-04-24T23:49:36;7.90;99.90
12049;DHT22;6085;49.452;8.502;2023-04-24T23:53:38;7.90;99.90
12049;DHT22;6085;49.452;8.502;2023-04-24T23:57:40;7.80;99.90
